Terminal Aerodrome Forecast
Issued by NWS St Louis, MO

Home | Current Version | Previous Version | Text Only | Print | Product List | Glossary On
Versions: 1 2 3 4 5 6 7 8 9 10 11 12 13 14 15 16 17 18
000
FTUS43 KLSX 231700
TAFCOU
TAF
KCOU 231727Z 2318/2418 21006KT P6SM BKN250
     FM232100 27005KT P6SM SCT025 BKN120
     FM240300 32005KT P6SM SCT015 BKN040
     FM240900 32009KT P6SM OVC015
     FM241400 31009KT 4SM -SN BR OVC008=

USA.gov is the U.S. government's official web portal to all federal, state and local government web resources and services.